Cap Pasley — A8NQ6 — position and weather

sailwx.info

Track history (hours):
 
Tides and Currents Weather Stations Pressure Air Temp Water Temp Dewpoint Dewpoint Depression Visibility Wind Speed Wind Dir Waves Ship Positions

Cap Pasley

Last reported at 2018-Feb-18 06:03 UTC. Time now 2018-Feb-19 17:28 UTC.
Position N 31°43' W 119°09'.

Length 186 m; draft 9.8 m.

MMSI: 636016648.

Date/timePositionNaut miles runAvg speedWind from/ knotsBaromVisibWave heightAir tempDewpointWater temp
2018-Feb-18 06:03N 31°43' W 119°09'116.3
2018-Feb-18 06:00N 31°43' W 119°09'816.6
2018-Feb-18 05:30N 31°50' W 119°15'8516.5
2018-Feb-18 00:19N 32°58' W 120°17'516.8
2018-Feb-18 00:00N 33°02' W 120°21'816.5
2018-Feb-17 23:30N 33°08' W 120°27'816.7
2018-Feb-17 23:01N 33°15' W 120°33'816.7
2018-Feb-17 22:30N 33°21' W 120°39'816.7
2018-Feb-17 22:00N 33°28' W 120°45'816.8
2018-Feb-17 21:30N 33°35' W 120°51'816.8
2018-Feb-17 21:00N 33°41' W 120°58'916.5
2018-Feb-17 20:28N 33°48' W 121°04'816.5
2018-Feb-17 20:00N 33°54' W 121°10'916.7
2018-Feb-17 19:28N 34°02' W 121°16'816.8
2018-Feb-17 19:00N 34°09' W 121°19'816.6
2018-Feb-17 18:30N 34°17' W 121°22'816.3
2018-Feb-17 18:00N 34°25' W 121°26'816.4
2018-Feb-17 17:30N 34°32' W 121°30'816.7
2018-Feb-17 17:00N 34°40' W 121°33'816.9
2018-Feb-17 16:30N 34°48' W 121°37'816.5
2018-Feb-17 16:00N 34°55' W 121°40'816.6
2018-Feb-17 15:30N 35°03' W 121°44'816.5
2018-Feb-17 15:00N 35°11' W 121°48'816.5
2018-Feb-17 14:30N 35°18' W 121°51'816.7
2018-Feb-17 14:00N 35°26' W 121°55'816.6
2018-Feb-17 13:30N 35°34' W 121°58'1816.4
2018-Feb-17 12:26N 35°51' W 122°06'716.4
2018-Feb-17 12:00N 35°57' W 122°09'816.6
2018-Feb-17 11:30N 36°05' W 122°13'816.5
2018-Feb-17 11:00N 36°13' W 122°16'816.2
2018-Feb-17 10:30N 36°20' W 122°20'816.8
2018-Feb-17 10:00N 36°28' W 122°23'816.6
2018-Feb-17 09:30N 36°36' W 122°27'816.7
2018-Feb-17 09:00N 36°44' W 122°31'816.4
2018-Feb-17 08:30N 36°51' W 122°35'816.4
2018-Feb-17 08:00N 36°59' W 122°38'816.5
2018-Feb-17 07:30N 37°07' W 122°41'816.6
2018-Feb-17 07:01N 37°15' W 122°43'816.5
2018-Feb-17 06:30N 37°23' W 122°44'816.6
2018-Feb-17 06:00N 37°32' W 122°44'816.5
2018-Feb-17 05:30N 37°40' W 122°43'713.0
2018-Feb-17 05:00N 37°46' W 122°40'714.3
2018-Feb-17 04:30N 37°48' W 122°31'713.7
2018-Feb-17 04:01N 37°49' W 122°23'4 7.1
2018-Feb-17 03:28N 37°48' W 122°18'0 0.9
2018-Feb-17 03:00N 37°48' W 122°19'0 0.0
2018-Feb-17 02:30N 37°48' W 122°19'0 0.0
2018-Feb-17 02:00N 37°48' W 122°19'0 0.0
2018-Feb-17 01:30N 37°48' W 122°19'0 0.0
2018-Feb-17 01:00N 37°48' W 122°19'0 0.0
2018-Feb-17 00:30N 37°48' W 122°19'0 0.0
2018-Feb-17 00:00N 37°48' W 122°19'0 0.0
2018-Feb-16 23:30N 37°48' W 122°19'0 0.0
2018-Feb-16 23:00N 37°48' W 122°19'0 0.0
2018-Feb-16 22:30N 37°48' W 122°19'0 0.0
2018-Feb-16 22:00N 37°48' W 122°19'0 0.0
2018-Feb-16 21:30N 37°48' W 122°19'0 0.0
2018-Feb-16 21:00N 37°48' W 122°19'0 0.0
2018-Feb-16 20:30N 37°48' W 122°19'0 0.0
2018-Feb-16 20:00N 37°48' W 122°19'0 0.0
2018-Feb-16 19:30N 37°48' W 122°19'0 0.0
2018-Feb-16 19:00N 37°48' W 122°19'0 0.0
2018-Feb-16 18:30N 37°48' W 122°19'0 0.0
2018-Feb-16 18:00N 37°48' W 122°19'0 0.0
2018-Feb-16 17:30N 37°48' W 122°19'0 0.0
2018-Feb-16 17:00N 37°48' W 122°19'0 0.0
2018-Feb-16 16:30N 37°48' W 122°19'0 0.0
2018-Feb-16 16:00N 37°48' W 122°19'0 0.0
2018-Feb-16 15:30N 37°48' W 122°19'0 0.0
2018-Feb-16 15:00N 37°48' W 122°19'0 0.0
2018-Feb-16 14:30N 37°48' W 122°19'0 0.0
2018-Feb-16 14:00N 37°48' W 122°19'0 0.0
2018-Feb-16 13:30N 37°48' W 122°19'1 2.8
2018-Feb-16 13:00N 37°48' W 122°20'510.5
2018-Feb-16 12:30N 37°49' W 122°27'611.5
2018-Feb-16 12:00N 37°47' W 122°34'713.2
2018-Feb-16 11:30N 37°44' W 122°41'4 8.9
2018-Feb-16 11:00N 37°40' W 122°40'611.7
2018-Feb-16 10:30N 37°34' W 122°39'714.5
2018-Feb-16 10:00N 37°27' W 122°39'714.4
2018-Feb-16 09:30N 37°20' W 122°39'714.5
2018-Feb-16 09:00N 37°12' W 122°38'714.9
2018-Feb-16 08:30N 37°05' W 122°36'714.9
2018-Feb-16 08:00N 36°58' W 122°34'815.4
2018-Feb-16 07:30N 36°50' W 122°32'815.4
2018-Feb-16 07:00N 36°43' W 122°28'815.2
2018-Feb-16 06:30N 36°36' W 122°24'815.3
2018-Feb-16 06:00N 36°30' W 122°19'815.1
2018-Feb-16 05:29N 36°23' W 122°15'1015.3
2018-Feb-16 04:49N 36°14' W 122°09'615.5
2018-Feb-16 04:26N 36°08' W 122°05'715.2
2018-Feb-16 03:59N 36°02' W 122°01'1715.1
2018-Feb-16 02:53N 35°48' W 121°52'615.0
2018-Feb-16 02:30N 35°43' W 121°49'1615.4
2018-Feb-16 01:28N 35°29' W 121°40'715.1
2018-Feb-16 01:00N 35°22' W 121°36'815.2
2018-Feb-16 00:30N 35°16' W 121°31'715.0
2018-Feb-16 00:00N 35°10' W 121°26'815.3
2018-Feb-15 23:30N 35°03' W 121°21'713.4
2018-Feb-15 23:00N 34°57' W 121°17'1 1.6
2018-Feb-15 22:28N 34°58' W 121°17'1 2.4
2018-Feb-15 21:55N 34°59' W 121°18'1 1.6
2018-Feb-15 21:30N 34°60' W 121°18'3 5.8
2018-Feb-15 21:00N 34°57' W 121°17'612.5
2018-Feb-15 20:30N 34°52' W 121°12'712.9
2018-Feb-15 19:57N 34°46' W 121°08'612.8
2018-Feb-15 19:29N 34°41' W 121°04'612.8
2018-Feb-15 19:01N 34°36' W 120°60'712.8
2018-Feb-15 18:30N 34°31' W 120°55'611.3
2018-Feb-15 18:00N 34°26' W 120°51'5 9.7
2018-Feb-15 17:30N 34°24' W 120°45'5 9.8
2018-Feb-15 17:00N 34°23' W 120°40'5 9.8
2018-Feb-15 16:30N 34°22' W 120°34'5 9.9
2018-Feb-15 16:00N 34°21' W 120°28'5 9.7
2018-Feb-15 15:29N 34°19' W 120°22'5 9.9
2018-Feb-15 15:00N 34°18' W 120°17'5 9.9
2018-Feb-15 14:28N 34°17' W 120°11'5 9.7
2018-Feb-15 13:59N 34°15' W 120°05'5 9.7
2018-Feb-15 13:30N 34°14' W 119°60'5 9.8
2018-Feb-15 13:00N 34°13' W 119°54'510.1
2018-Feb-15 12:29N 34°12' W 119°48'510.0
2018-Feb-15 11:59N 34°10' W 119°42'5 9.7
2018-Feb-15 11:30N 34°09' W 119°37'5 9.7
2018-Feb-15 10:57N 34°07' W 119°30'510.8
2018-Feb-15 10:28N 34°06' W 119°24'611.9
2018-Feb-15 10:00N 34°05' W 119°18'611.7
2018-Feb-15 09:28N 34°02' W 119°11'511.7
2018-Feb-15 09:00N 33°59' W 119°05'711.9
2018-Feb-15 08:24N 33°55' W 118°58'511.9
2018-Feb-15 07:59N 33°53' W 118°53'611.9
2018-Feb-15 07:30N 33°50' W 118°47'611.7
2018-Feb-15 06:59N 33°47' W 118°40'611.5
2018-Feb-15 06:31N 33°45' W 118°35'611.6
2018-Feb-15 06:00N 33°42' W 118°28'611.7
2018-Feb-15 05:31N 33°39' W 118°22'510.5
2018-Feb-15 05:00N 33°39' W 118°16'4 7.4
2018-Feb-15 04:31N 33°41' W 118°12'4 8.0
2018-Feb-15 04:01N 33°45' W 118°13'2 3.6
2018-Feb-15 03:31N 33°46' W 118°14'0 0.2
2018-Feb-15 03:00N 33°46' W 118°14'0 0.0
2018-Feb-15 02:30N 33°46' W 118°14'0 0.0
2018-Feb-15 02:00N 33°46' W 118°14'0 0.0
2018-Feb-15 01:30N 33°46' W 118°14'0 0.0
2018-Feb-15 01:00N 33°46' W 118°14'0 0.0
2018-Feb-15 00:30N 33°46' W 118°14'0 0.0
2018-Feb-15 00:00N 33°46' W 118°14'0 0.0
2018-Feb-14 23:30N 33°46' W 118°14'0 0.0
2018-Feb-14 23:00N 33°46' W 118°14'0 0.0
2018-Feb-14 22:30N 33°46' W 118°14'0 0.0
2018-Feb-14 22:00N 33°46' W 118°14'0 0.0
2018-Feb-14 21:30N 33°46' W 118°14'0 0.0
2018-Feb-14 21:00N 33°46' W 118°14'0 0.0
2018-Feb-14 20:30N 33°46' W 118°14'0 0.0
2018-Feb-14 19:57N 33°46' W 118°14'0 0.0
2018-Feb-14 19:30N 33°46' W 118°14'0 0.0
2018-Feb-14 19:00N 33°46' W 118°14'0 0.0
2018-Feb-14 18:30N 33°46' W 118°14'0 0.0
2018-Feb-14 18:00N 33°46' W 118°14'0 0.0
2018-Feb-14 17:30N 33°46' W 118°14'0 0.0
2018-Feb-14 16:57N 33°46' W 118°14'0 0.0
2018-Feb-14 16:30N 33°46' W 118°14'0 0.0
2018-Feb-14 16:00N 33°46' W 118°14'0 0.0
2018-Feb-14 15:30N 33°46' W 118°14'0 0.0
2018-Feb-14 15:00N 33°46' W 118°14'0 0.0
2018-Feb-14 14:30N 33°46' W 118°14'0 0.0
2018-Feb-14 14:00N 33°46' W 118°14'0 0.0
2018-Feb-14 13:30N 33°46' W 118°14'0 0.0
2018-Feb-14 12:57N 33°46' W 118°14'0 0.0
2018-Feb-14 12:30N 33°46' W 118°14'0 0.0
2018-Feb-14 12:00N 33°46' W 118°14'1 1.8
2018-Feb-14 11:30N 33°46' W 118°13'3 5.7
2018-Feb-14 11:00N 33°43' W 118°11'5 9.2
2018-Feb-14 10:30N 33°39' W 118°10'2210.3
2018-Feb-14 08:23N 33°18' W 118°02'410.7
2018-Feb-14 08:00N 33°15' W 117°60'510.8
2018-Feb-14 07:30N 33°10' W 117°57'510.7
2018-Feb-14 07:00N 33°05' W 117°54'510.7
2018-Feb-14 06:30N 33°00' W 117°52'510.6
2018-Feb-14 06:00N 32°55' W 117°49'510.4
2018-Feb-14 05:30N 32°51' W 117°47'510.2
2018-Feb-14 05:00N 32°46' W 117°44'510.4
2018-Feb-14 04:29N 32°41' W 117°42'510.5
2018-Feb-14 04:01N 32°36' W 117°39'815.2
2018-Feb-14 03:30N 32°29' W 117°37'  
Track history (hours):
 
Tides and Currents Weather Stations Pressure Air Temp Water Temp Dewpoint Dewpoint Depression Visibility Wind Speed Wind Dir Waves Ship Positions

Cap Pasley

Last reported at 2018-Feb-18 06:03 UTC. Time now 2018-Feb-19 17:28 UTC.
Position N 31°43' W 119°09'.

Length 186 m; draft 9.8 m.

MMSI: 636016648.

Date/timePositionNaut miles runAvg speedWind from/ knotsBaromVisibWave heightAir tempDewpointWater temp
2018-Feb-18 06:03N 31°43' W 119°09'116.3
2018-Feb-18 06:00N 31°43' W 119°09'816.6
2018-Feb-18 05:30N 31°50' W 119°15'8516.5
2018-Feb-18 00:19N 32°58' W 120°17'516.8
2018-Feb-18 00:00N 33°02' W 120°21'816.5
2018-Feb-17 23:30N 33°08' W 120°27'816.7
2018-Feb-17 23:01N 33°15' W 120°33'816.7
2018-Feb-17 22:30N 33°21' W 120°39'816.7
2018-Feb-17 22:00N 33°28' W 120°45'816.8
2018-Feb-17 21:30N 33°35' W 120°51'816.8
2018-Feb-17 21:00N 33°41' W 120°58'916.5
2018-Feb-17 20:28N 33°48' W 121°04'816.5
2018-Feb-17 20:00N 33°54' W 121°10'916.7
2018-Feb-17 19:28N 34°02' W 121°16'816.8
2018-Feb-17 19:00N 34°09' W 121°19'816.6
2018-Feb-17 18:30N 34°17' W 121°22'816.3
2018-Feb-17 18:00N 34°25' W 121°26'816.4
2018-Feb-17 17:30N 34°32' W 121°30'816.7
2018-Feb-17 17:00N 34°40' W 121°33'816.9
2018-Feb-17 16:30N 34°48' W 121°37'816.5
2018-Feb-17 16:00N 34°55' W 121°40'816.6
2018-Feb-17 15:30N 35°03' W 121°44'816.5
2018-Feb-17 15:00N 35°11' W 121°48'816.5
2018-Feb-17 14:30N 35°18' W 121°51'816.7
2018-Feb-17 14:00N 35°26' W 121°55'816.6
2018-Feb-17 13:30N 35°34' W 121°58'1816.4
2018-Feb-17 12:26N 35°51' W 122°06'716.4
2018-Feb-17 12:00N 35°57' W 122°09'816.6
2018-Feb-17 11:30N 36°05' W 122°13'816.5
2018-Feb-17 11:00N 36°13' W 122°16'816.2
2018-Feb-17 10:30N 36°20' W 122°20'816.8
2018-Feb-17 10:00N 36°28' W 122°23'816.6
2018-Feb-17 09:30N 36°36' W 122°27'816.7
2018-Feb-17 09:00N 36°44' W 122°31'816.4
2018-Feb-17 08:30N 36°51' W 122°35'816.4
2018-Feb-17 08:00N 36°59' W 122°38'816.5
2018-Feb-17 07:30N 37°07' W 122°41'816.6
2018-Feb-17 07:01N 37°15' W 122°43'816.5
2018-Feb-17 06:30N 37°23' W 122°44'816.6
2018-Feb-17 06:00N 37°32' W 122°44'816.5
2018-Feb-17 05:30N 37°40' W 122°43'713.0
2018-Feb-17 05:00N 37°46' W 122°40'714.3
2018-Feb-17 04:30N 37°48' W 122°31'713.7
2018-Feb-17 04:01N 37°49' W 122°23'4 7.1
2018-Feb-17 03:28N 37°48' W 122°18'0 0.9
2018-Feb-17 03:00N 37°48' W 122°19'0 0.0
2018-Feb-17 02:30N 37°48' W 122°19'0 0.0
2018-Feb-17 02:00N 37°48' W 122°19'0 0.0
2018-Feb-17 01:30N 37°48' W 122°19'0 0.0
2018-Feb-17 01:00N 37°48' W 122°19'0 0.0
2018-Feb-17 00:30N 37°48' W 122°19'0 0.0
2018-Feb-17 00:00N 37°48' W 122°19'0 0.0
2018-Feb-16 23:30N 37°48' W 122°19'0 0.0
2018-Feb-16 23:00N 37°48' W 122°19'0 0.0
2018-Feb-16 22:30N 37°48' W 122°19'0 0.0
2018-Feb-16 22:00N 37°48' W 122°19'0 0.0
2018-Feb-16 21:30N 37°48' W 122°19'0 0.0
2018-Feb-16 21:00N 37°48' W 122°19'0 0.0
2018-Feb-16 20:30N 37°48' W 122°19'0 0.0
2018-Feb-16 20:00N 37°48' W 122°19'0 0.0
2018-Feb-16 19:30N 37°48' W 122°19'0 0.0
2018-Feb-16 19:00N 37°48' W 122°19'0 0.0
2018-Feb-16 18:30N 37°48' W 122°19'0 0.0
2018-Feb-16 18:00N 37°48' W 122°19'0 0.0
2018-Feb-16 17:30N 37°48' W 122°19'0 0.0
2018-Feb-16 17:00N 37°48' W 122°19'0 0.0
2018-Feb-16 16:30N 37°48' W 122°19'0 0.0
2018-Feb-16 16:00N 37°48' W 122°19'0 0.0
2018-Feb-16 15:30N 37°48' W 122°19'0 0.0
2018-Feb-16 15:00N 37°48' W 122°19'0 0.0
2018-Feb-16 14:30N 37°48' W 122°19'0 0.0
2018-Feb-16 14:00N 37°48' W 122°19'0 0.0
2018-Feb-16 13:30N 37°48' W 122°19'1 2.8
2018-Feb-16 13:00N 37°48' W 122°20'510.5
2018-Feb-16 12:30N 37°49' W 122°27'611.5
2018-Feb-16 12:00N 37°47' W 122°34'713.2
2018-Feb-16 11:30N 37°44' W 122°41'4 8.9
2018-Feb-16 11:00N 37°40' W 122°40'611.7
2018-Feb-16 10:30N 37°34' W 122°39'714.5
2018-Feb-16 10:00N 37°27' W 122°39'714.4
2018-Feb-16 09:30N 37°20' W 122°39'714.5
2018-Feb-16 09:00N 37°12' W 122°38'714.9
2018-Feb-16 08:30N 37°05' W 122°36'714.9
2018-Feb-16 08:00N 36°58' W 122°34'815.4
2018-Feb-16 07:30N 36°50' W 122°32'815.4
2018-Feb-16 07:00N 36°43' W 122°28'815.2
2018-Feb-16 06:30N 36°36' W 122°24'815.3
2018-Feb-16 06:00N 36°30' W 122°19'815.1
2018-Feb-16 05:29N 36°23' W 122°15'1015.3
2018-Feb-16 04:49N 36°14' W 122°09'615.5
2018-Feb-16 04:26N 36°08' W 122°05'715.2
2018-Feb-16 03:59N 36°02' W 122°01'1715.1
2018-Feb-16 02:53N 35°48' W 121°52'615.0
2018-Feb-16 02:30N 35°43' W 121°49'1615.4
2018-Feb-16 01:28N 35°29' W 121°40'715.1
2018-Feb-16 01:00N 35°22' W 121°36'815.2
2018-Feb-16 00:30N 35°16' W 121°31'715.0
2018-Feb-16 00:00N 35°10' W 121°26'815.3
2018-Feb-15 23:30N 35°03' W 121°21'713.4
2018-Feb-15 23:00N 34°57' W 121°17'1 1.6
2018-Feb-15 22:28N 34°58' W 121°17'1 2.4
2018-Feb-15 21:55N 34°59' W 121°18'1 1.6
2018-Feb-15 21:30N 34°60' W 121°18'3 5.8
2018-Feb-15 21:00N 34°57' W 121°17'612.5
2018-Feb-15 20:30N 34°52' W 121°12'712.9
2018-Feb-15 19:57N 34°46' W 121°08'612.8
2018-Feb-15 19:29N 34°41' W 121°04'612.8
2018-Feb-15 19:01N 34°36' W 120°60'712.8
2018-Feb-15 18:30N 34°31' W 120°55'611.3
2018-Feb-15 18:00N 34°26' W 120°51'5 9.7
2018-Feb-15 17:30N 34°24' W 120°45'5 9.8
2018-Feb-15 17:00N 34°23' W 120°40'5 9.8
2018-Feb-15 16:30N 34°22' W 120°34'5 9.9
2018-Feb-15 16:00N 34°21' W 120°28'5 9.7
2018-Feb-15 15:29N 34°19' W 120°22'5 9.9
2018-Feb-15 15:00N 34°18' W 120°17'5 9.9
2018-Feb-15 14:28N 34°17' W 120°11'5 9.7
2018-Feb-15 13:59N 34°15' W 120°05'5 9.7
2018-Feb-15 13:30N 34°14' W 119°60'5 9.8
2018-Feb-15 13:00N 34°13' W 119°54'510.1
2018-Feb-15 12:29N 34°12' W 119°48'510.0
2018-Feb-15 11:59N 34°10' W 119°42'5 9.7
2018-Feb-15 11:30N 34°09' W 119°37'5 9.7
2018-Feb-15 10:57N 34°07' W 119°30'510.8
2018-Feb-15 10:28N 34°06' W 119°24'611.9
2018-Feb-15 10:00N 34°05' W 119°18'611.7
2018-Feb-15 09:28N 34°02' W 119°11'511.7
2018-Feb-15 09:00N 33°59' W 119°05'711.9
2018-Feb-15 08:24N 33°55' W 118°58'511.9
2018-Feb-15 07:59N 33°53' W 118°53'611.9
2018-Feb-15 07:30N 33°50' W 118°47'611.7
2018-Feb-15 06:59N 33°47' W 118°40'611.5
2018-Feb-15 06:31N 33°45' W 118°35'611.6
2018-Feb-15 06:00N 33°42' W 118°28'611.7
2018-Feb-15 05:31N 33°39' W 118°22'510.5
2018-Feb-15 05:00N 33°39' W 118°16'4 7.4
2018-Feb-15 04:31N 33°41' W 118°12'4 8.0
2018-Feb-15 04:01N 33°45' W 118°13'2 3.6
2018-Feb-15 03:31N 33°46' W 118°14'0 0.2
2018-Feb-15 03:00N 33°46' W 118°14'0 0.0
2018-Feb-15 02:30N 33°46' W 118°14'0 0.0
2018-Feb-15 02:00N 33°46' W 118°14'0 0.0
2018-Feb-15 01:30N 33°46' W 118°14'0 0.0
2018-Feb-15 01:00N 33°46' W 118°14'0 0.0
2018-Feb-15 00:30N 33°46' W 118°14'0 0.0
2018-Feb-15 00:00N 33°46' W 118°14'0 0.0
2018-Feb-14 23:30N 33°46' W 118°14'0 0.0
2018-Feb-14 23:00N 33°46' W 118°14'0 0.0
2018-Feb-14 22:30N 33°46' W 118°14'0 0.0
2018-Feb-14 22:00N 33°46' W 118°14'0 0.0
2018-Feb-14 21:30N 33°46' W 118°14'0 0.0
2018-Feb-14 21:00N 33°46' W 118°14'0 0.0
2018-Feb-14 20:30N 33°46' W 118°14'0 0.0
2018-Feb-14 19:57N 33°46' W 118°14'0 0.0
2018-Feb-14 19:30N 33°46' W 118°14'0 0.0
2018-Feb-14 19:00N 33°46' W 118°14'0 0.0
2018-Feb-14 18:30N 33°46' W 118°14'0 0.0
2018-Feb-14 18:00N 33°46' W 118°14'0 0.0
2018-Feb-14 17:30N 33°46' W 118°14'0 0.0
2018-Feb-14 16:57N 33°46' W 118°14'0 0.0
2018-Feb-14 16:30N 33°46' W 118°14'0 0.0
2018-Feb-14 16:00N 33°46' W 118°14'0 0.0
2018-Feb-14 15:30N 33°46' W 118°14'0 0.0
2018-Feb-14 15:00N 33°46' W 118°14'0 0.0
2018-Feb-14 14:30N 33°46' W 118°14'0 0.0
2018-Feb-14 14:00N 33°46' W 118°14'0 0.0
2018-Feb-14 13:30N 33°46' W 118°14'0 0.0
2018-Feb-14 12:57N 33°46' W 118°14'0 0.0
2018-Feb-14 12:30N 33°46' W 118°14'0 0.0
2018-Feb-14 12:00N 33°46' W 118°14'1 1.8
2018-Feb-14 11:30N 33°46' W 118°13'3 5.7
2018-Feb-14 11:00N 33°43' W 118°11'5 9.2
2018-Feb-14 10:30N 33°39' W 118°10'2210.3
2018-Feb-14 08:23N 33°18' W 118°02'410.7
2018-Feb-14 08:00N 33°15' W 117°60'510.8
2018-Feb-14 07:30N 33°10' W 117°57'510.7
2018-Feb-14 07:00N 33°05' W 117°54'510.7
2018-Feb-14 06:30N 33°00' W 117°52'510.6
2018-Feb-14 06:00N 32°55' W 117°49'510.4
2018-Feb-14 05:30N 32°51' W 117°47'510.2
2018-Feb-14 05:00N 32°46' W 117°44'510.4
2018-Feb-14 04:29N 32°41' W 117°42'510.5
2018-Feb-14 04:01N 32°36' W 117°39'815.2
2018-Feb-14 03:30N 32°29' W 117°37'  

Dump ship's entire track history